createdAt,value
2022-08-24T00:01:36.135Z,100.00
2022-08-24T00:04:22.946Z,100.00
2022-08-24T00:07:23.717Z,100.00
2022-08-24T00:10:15.559Z,100.00
2022-08-24T00:13:07.568Z,100.00
2022-08-24T00:15:56.117Z,100.00
2022-08-24T00:18:47.132Z,100.00
2022-08-24T00:21:34.119Z,100.00
2022-08-24T00:24:21.190Z,100.00
2022-08-24T00:27:08.651Z,100.00
2022-08-24T00:29:57.196Z,100.00
2022-08-24T00:32:44.202Z,100.00
2022-08-24T00:35:31.203Z,100.00
2022-08-24T00:38:17.880Z,100.00
2022-08-24T00:41:05.954Z,100.00
2022-08-24T00:43:58.435Z,100.00
2022-08-24T00:46:51.974Z,100.00
2022-08-24T00:49:43.376Z,100.00
2022-08-24T00:52:34.053Z,100.00
2022-08-24T00:55:24.508Z,100.00
2022-08-24T00:58:17.015Z,100.00
2022-08-24T01:01:06.989Z,100.00
2022-08-24T01:03:58.222Z,100.00
2022-08-24T01:06:46.288Z,100.00
2022-08-24T01:09:33.309Z,100.00
2022-08-24T01:12:19.920Z,100.00
2022-08-24T01:15:10.538Z,100.00
2022-08-24T01:18:15.116Z,100.00
2022-08-24T01:21:15.893Z,100.00
2022-08-24T01:24:05.848Z,100.00
2022-08-24T01:26:52.849Z,100.00
2022-08-24T01:29:42.075Z,100.00
2022-08-24T01:32:29.271Z,100.00
2022-08-24T01:35:15.957Z,100.00
2022-08-24T01:38:07.807Z,100.00
2022-08-24T01:41:00.707Z,100.00
2022-08-24T01:43:47.652Z,100.00
2022-08-24T01:46:34.926Z,100.00
2022-08-24T01:49:24.017Z,100.00
2022-08-24T01:52:13.225Z,100.00
2022-08-24T01:55:00.599Z,100.00
2022-08-24T01:57:48.883Z,100.00
2022-08-24T02:00:37.799Z,100.00
2022-08-24T02:03:29.532Z,100.00
2022-08-24T02:06:19.810Z,100.00
2022-08-24T02:09:07.700Z,100.00
2022-08-24T02:11:55.249Z,100.00
2022-08-24T02:14:44.390Z,100.00
2022-08-24T02:17:31.829Z,100.00
2022-08-24T02:20:19.127Z,100.00
2022-08-24T02:23:07.221Z,100.00
2022-08-24T02:25:54.035Z,100.00
2022-08-24T02:28:41.122Z,100.00
2022-08-24T02:31:29.536Z,100.00
2022-08-24T02:34:16.341Z,100.00
2022-08-24T02:37:04.281Z,100.00
2022-08-24T02:39:50.749Z,100.00
2022-08-24T02:42:39.576Z,100.00
2022-08-24T02:45:26.775Z,100.00
2022-08-24T02:48:15.213Z,100.00
2022-08-24T02:51:01.768Z,100.00
2022-08-24T02:53:49.146Z,100.00
2022-08-24T02:56:37.264Z,100.00
2022-08-24T02:59:24.784Z,100.00
2022-08-24T03:02:11.919Z,100.00
2022-08-24T03:05:00.016Z,100.00
2022-08-24T03:07:46.954Z,100.00
2022-08-24T03:10:34.375Z,100.00
2022-08-24T03:13:22.099Z,100.00
2022-08-24T03:16:08.960Z,100.00
2022-08-24T03:18:56.042Z,100.00
2022-08-24T03:21:45.820Z,100.00
2022-08-24T03:24:32.473Z,100.00
2022-08-24T03:27:19.983Z,100.00
2022-08-24T03:30:09.718Z,100.00
2022-08-24T03:32:56.408Z,100.00
2022-08-24T03:35:43.217Z,100.00
2022-08-24T03:38:34.679Z,100.00
2022-08-24T03:41:21.575Z,100.00
2022-08-24T03:44:08.783Z,100.00
2022-08-24T03:46:56.625Z,100.00
2022-08-24T03:49:46.025Z,100.00
2022-08-24T03:52:34.049Z,100.00
2022-08-24T03:55:22.826Z,100.00
2022-08-24T03:58:09.332Z,100.00
2022-08-24T04:00:56.136Z,100.00
2022-08-24T04:03:45.712Z,100.00
2022-08-24T04:06:33.587Z,100.00
2022-08-24T04:09:20.989Z,100.00
2022-08-24T04:12:09.993Z,100.00
2022-08-24T04:14:57.028Z,100.00
2022-08-24T04:17:45.270Z,100.00
2022-08-24T04:20:32.195Z,100.00
2022-08-24T04:23:19.182Z,100.00
2022-08-24T04:26:06.294Z,100.00
2022-08-24T04:28:55.970Z,100.00
2022-08-24T04:31:44.266Z,100.00
2022-08-24T04:34:31.428Z,100.00
2022-08-24T04:37:18.500Z,100.00
2022-08-24T04:40:13.924Z,100.00
2022-08-24T04:43:06.335Z,100.00
2022-08-24T04:45:55.561Z,100.00
2022-08-24T04:48:44.674Z,100.00
2022-08-24T04:51:36.362Z,100.00
2022-08-24T04:54:24.874Z,100.00
2022-08-24T04:57:25.606Z,100.00
2022-08-24T05:00:13.949Z,100.00
2022-08-24T05:03:05.159Z,100.00
2022-08-24T05:05:53.015Z,100.00
2022-08-24T05:08:39.809Z,100.00
2022-08-24T05:11:26.920Z,100.00
2022-08-24T05:14:13.961Z,100.00
2022-08-24T05:17:00.801Z,100.00
2022-08-24T05:19:52.090Z,100.00
2022-08-24T05:22:39.357Z,100.00
2022-08-24T05:25:26.222Z,100.00
2022-08-24T05:28:13.417Z,100.00
2022-08-24T05:31:09.225Z,100.00
2022-08-24T05:33:56.861Z,100.00
2022-08-24T05:36:45.492Z,100.00
2022-08-24T05:39:41.325Z,100.00
2022-08-24T05:42:28.642Z,100.00
2022-08-24T05:45:16.151Z,100.00
2022-08-24T05:48:03.806Z,100.00
2022-08-24T05:51:10.864Z,100.00
2022-08-24T05:54:09.856Z,100.00
2022-08-24T05:57:08.546Z,100.00
2022-08-24T06:00:01.999Z,100.00
2022-08-24T06:02:52.983Z,100.00
2022-08-24T06:05:42.316Z,100.00
2022-08-24T06:08:30.137Z,100.00
2022-08-24T06:11:29.770Z,100.00
2022-08-24T06:14:23.883Z,100.00
2022-08-24T06:17:18.696Z,100.00
2022-08-24T06:20:07.466Z,100.00
2022-08-24T06:22:53.903Z,100.00
2022-08-24T06:26:00.126Z,100.00
2022-08-24T06:28:48.235Z,100.00
2022-08-24T06:31:39.832Z,100.00
2022-08-24T06:34:28.938Z,100.00
2022-08-24T06:37:16.771Z,100.00
2022-08-24T06:40:05.298Z,100.00
2022-08-24T06:42:54.421Z,100.00
2022-08-24T06:45:53.615Z,100.00
2022-08-24T06:48:43.100Z,100.00
2022-08-24T06:51:31.904Z,100.00
2022-08-24T06:54:20.897Z,100.00
2022-08-24T06:57:08.310Z,100.00
2022-08-24T06:59:55.256Z,100.00
2022-08-24T07:02:43.187Z,100.00
2022-08-24T07:05:30.278Z,100.00
2022-08-24T07:08:52.523Z,100.00
2022-08-24T07:11:39.388Z,100.00
2022-08-24T07:14:26.268Z,100.00
2022-08-24T07:17:13.031Z,100.00
2022-08-24T07:20:01.563Z,100.00
2022-08-24T07:23:08.175Z,100.00
2022-08-24T07:25:56.178Z,100.00
2022-08-24T07:28:45.556Z,100.00
2022-08-24T07:31:35.516Z,100.00
2022-08-24T07:34:31.203Z,100.00
2022-08-24T07:37:20.585Z,100.00
2022-08-24T07:40:09.889Z,100.00
2022-08-24T07:42:59.049Z,100.00
2022-08-24T07:45:46.044Z,100.00
2022-08-24T07:48:32.899Z,100.00
2022-08-24T07:51:20.771Z,100.00
2022-08-24T07:54:13.218Z,100.00
2022-08-24T07:57:04.572Z,100.00
2022-08-24T07:59:52.507Z,100.00
2022-08-24T08:02:39.312Z,100.00
2022-08-24T08:05:26.753Z,100.00
2022-08-24T08:08:15.523Z,100.00
2022-08-24T08:11:04.984Z,100.00
2022-08-24T08:13:51.894Z,100.00
2022-08-24T08:16:39.311Z,100.00
2022-08-24T08:19:26.013Z,100.00
2022-08-24T08:22:35.531Z,100.00
2022-08-24T08:25:44.406Z,100.00
2022-08-24T08:28:43.302Z,100.00
2022-08-24T08:31:30.201Z,100.00
2022-08-24T08:34:21.735Z,100.00
2022-08-24T08:37:08.755Z,100.00
2022-08-24T08:39:55.900Z,100.00
2022-08-24T08:43:01.444Z,100.00
2022-08-24T08:46:08.422Z,100.00
2022-08-24T08:49:45.894Z,100.00
2022-08-24T08:53:06.184Z,100.00
2022-08-24T08:56:03.433Z,100.00
2022-08-24T08:59:01.676Z,100.00
2022-08-24T09:02:26.979Z,100.00
2022-08-24T09:06:00.730Z,100.00
2022-08-24T09:09:12.237Z,100.00
2022-08-24T09:12:10.041Z,100.00
2022-08-24T09:15:12.022Z,100.00
2022-08-24T09:18:18.079Z,100.00
2022-08-24T09:21:16.828Z,100.00
2022-08-24T09:24:37.960Z,100.00
2022-08-24T09:27:50.410Z,100.00
2022-08-24T09:30:57.860Z,100.00
2022-08-24T09:33:57.370Z,100.00
2022-08-24T09:36:53.985Z,100.00
2022-08-24T09:40:01.985Z,100.00
2022-08-24T09:43:21.034Z,100.00
2022-08-24T09:46:39.296Z,100.00
2022-08-24T09:50:00.685Z,100.00
2022-08-24T09:53:26.483Z,100.00
2022-08-24T09:56:25.887Z,100.00
2022-08-24T09:59:52.620Z,100.00
2022-08-24T10:03:02.795Z,100.00
2022-08-24T10:06:08.341Z,100.00
2022-08-24T10:09:24.019Z,100.00
2022-08-24T10:12:22.860Z,100.00
2022-08-24T10:15:11.664Z,100.00
2022-08-24T10:18:13.584Z,100.00
2022-08-24T10:21:28.705Z,100.00
2022-08-24T10:24:30.928Z,100.00
2022-08-24T10:27:47.928Z,100.00
2022-08-24T10:30:48.448Z,100.00
2022-08-24T10:33:46.131Z,100.00
2022-08-24T10:36:49.443Z,100.00
2022-08-24T10:40:15.787Z,100.00
2022-08-24T10:43:37.566Z,100.00
2022-08-24T10:46:46.664Z,100.00
2022-08-24T10:50:02.571Z,100.00
2022-08-24T10:53:04.742Z,100.00
2022-08-24T10:56:19.177Z,100.00
2022-08-24T10:59:19.866Z,100.00
2022-08-24T11:02:28.871Z,100.00
2022-08-24T11:05:29.699Z,100.00
2022-08-24T11:08:23.732Z,100.00
2022-08-24T11:11:13.239Z,100.00
2022-08-24T11:14:03.022Z,100.00
2022-08-24T11:16:52.581Z,100.00
2022-08-24T11:19:42.624Z,100.00
2022-08-24T11:22:33.138Z,100.00
2022-08-24T11:25:26.740Z,100.00
2022-08-24T11:28:21.732Z,100.00
2022-08-24T11:31:12.604Z,100.00
2022-08-24T11:34:03.679Z,100.00
2022-08-24T11:36:50.261Z,100.00
2022-08-24T11:39:38.944Z,100.00
2022-08-24T11:42:39.542Z,100.00
2022-08-24T11:45:35.467Z,100.00
2022-08-24T11:48:36.207Z,100.00
2022-08-24T11:51:36.209Z,100.00
2022-08-24T11:54:37.267Z,100.00
2022-08-24T11:57:36.092Z,100.00
2022-08-24T12:00:27.011Z,100.00
2022-08-24T12:03:31.072Z,100.00
2022-08-24T12:06:35.927Z,100.00
2022-08-24T12:09:34.065Z,100.00
2022-08-24T12:12:28.707Z,100.00
2022-08-24T12:15:25.753Z,100.00
2022-08-24T12:18:28.294Z,100.00
2022-08-24T12:21:16.993Z,100.00
2022-08-24T12:24:08.974Z,100.00
2022-08-24T12:27:00.790Z,100.00
2022-08-24T12:29:53.426Z,100.00
2022-08-24T12:32:44.069Z,100.00
2022-08-24T12:35:35.287Z,100.00
2022-08-24T12:38:27.842Z,100.00
2022-08-24T12:41:20.295Z,100.00
2022-08-24T12:44:12.574Z,100.00
2022-08-24T12:46:59.452Z,100.00
2022-08-24T12:49:52.559Z,96.43
2022-08-24T12:53:14.329Z,98.15
2022-08-24T12:56:34.765Z,95.31
2022-08-24T12:59:25.420Z,96.94
2022-08-24T13:02:31.160Z,89.49
2022-08-24T13:05:21.601Z,92.00
2022-08-24T13:08:15.603Z,94.96
2022-08-24T13:11:06.426Z,91.29
2022-08-24T13:14:17.559Z,94.93
2022-08-24T13:17:14.256Z,96.94
2022-08-24T13:20:18.832Z,96.79
2022-08-24T13:23:16.102Z,99.06
2022-08-24T13:26:24.427Z,100.00
2022-08-24T13:29:11.818Z,100.00
2022-08-24T13:32:00.281Z,100.00
2022-08-24T13:34:49.383Z,100.00
2022-08-24T13:37:36.738Z,100.00
2022-08-24T13:40:28.031Z,100.00
2022-08-24T13:43:21.231Z,99.31
2022-08-24T13:46:20.357Z,98.93
2022-08-24T13:49:22.653Z,94.60
2022-08-24T13:52:20.183Z,99.27
2022-08-24T13:55:23.454Z,97.28
2022-08-24T13:58:23.734Z,94.38
2022-08-24T14:01:30.779Z,90.45
2022-08-24T14:04:38.085Z,90.78
2022-08-24T14:07:31.121Z,90.02
2022-08-24T14:10:35.000Z,91.45
2022-08-24T14:13:36.605Z,91.25
2022-08-24T14:16:56.150Z,93.03
2022-08-24T14:19:51.014Z,90.25
2022-08-24T14:22:51.499Z,96.26
2022-08-24T14:25:39.100Z,91.94
2022-08-24T14:28:45.425Z,96.53
2022-08-24T14:31:32.752Z,92.62
2022-08-24T14:34:32.807Z,90.13
2022-08-24T14:37:23.934Z,89.06
2022-08-24T14:40:21.271Z,88.98
2022-08-24T14:43:28.550Z,92.48
2022-08-24T14:46:29.145Z,88.82
2022-08-24T14:49:29.715Z,88.75
2022-08-24T14:52:41.999Z,93.21
2022-08-24T14:55:35.614Z,92.41
2022-08-24T14:58:35.834Z,92.19
2022-08-24T15:01:47.002Z,89.59
2022-08-24T15:04:41.244Z,86.93
2022-08-24T15:07:31.790Z,87.88
2022-08-24T15:10:24.900Z,85.69
2022-08-24T15:13:14.855Z,86.76
2022-08-24T15:16:06.045Z,87.58
2022-08-24T15:19:03.544Z,86.37
2022-08-24T15:21:57.332Z,88.28
2022-08-24T15:24:48.370Z,87.85
2022-08-24T15:27:43.848Z,87.50
2022-08-24T15:30:34.513Z,87.58
2022-08-24T15:33:21.640Z,84.63
2022-08-24T15:36:12.782Z,87.16
2022-08-24T15:38:59.728Z,85.92
2022-08-24T15:41:47.239Z,92.35
2022-08-24T15:44:34.418Z,91.68
2022-08-24T15:47:27.986Z,88.16
2022-08-24T15:50:25.424Z,87.40
2022-08-24T15:53:30.695Z,88.51
2022-08-24T15:56:36.020Z,86.11
2022-08-24T15:59:28.131Z,88.37
2022-08-24T16:02:33.393Z,87.15
2022-08-24T16:05:36.365Z,87.80
2022-08-24T16:08:25.025Z,87.02
2022-08-24T16:11:41.960Z,87.88
2022-08-24T16:14:31.112Z,86.66
2022-08-24T16:17:37.101Z,89.59
2022-08-24T16:20:33.191Z,89.44
2022-08-24T16:23:27.234Z,88.92
2022-08-24T16:26:26.641Z,91.18
2022-08-24T16:29:46.161Z,92.83
2022-08-24T16:32:49.778Z,91.90
2022-08-24T16:35:40.062Z,95.34
2022-08-24T16:38:29.408Z,94.99
2022-08-24T16:41:19.505Z,93.65
2022-08-24T16:44:06.236Z,94.85
2022-08-24T16:46:53.018Z,95.67
2022-08-24T16:49:40.401Z,97.86
2022-08-24T16:52:27.413Z,99.20
2022-08-24T16:55:15.256Z,98.40
2022-08-24T16:58:02.915Z,97.93
2022-08-24T17:00:49.623Z,98.85
2022-08-24T17:03:36.244Z,99.33
2022-08-24T17:06:23.251Z,99.97
2022-08-24T17:09:09.932Z,100.00
2022-08-24T17:11:58.422Z,100.00
2022-08-24T17:14:45.300Z,100.00
2022-08-24T17:17:31.985Z,100.00
2022-08-24T17:20:19.084Z,100.00
2022-08-24T17:23:06.086Z,100.00
2022-08-24T17:25:54.034Z,100.00
2022-08-24T17:28:47.199Z,100.00
2022-08-24T17:31:34.245Z,100.00
2022-08-24T17:34:22.080Z,100.00
2022-08-24T17:37:11.528Z,100.00
2022-08-24T17:39:59.693Z,100.00
2022-08-24T17:42:51.275Z,100.00
2022-08-24T17:45:39.699Z,100.00
2022-08-24T17:48:27.965Z,100.00
2022-08-24T17:51:15.257Z,100.00
2022-08-24T17:54:01.988Z,100.00
2022-08-24T17:56:51.088Z,100.00
2022-08-24T17:59:38.644Z,100.00
2022-08-24T18:02:26.773Z,100.00
2022-08-24T18:05:14.945Z,100.00
2022-08-24T18:08:03.340Z,100.00
2022-08-24T18:10:49.660Z,100.00
2022-08-24T18:13:37.188Z,100.00
2022-08-24T18:16:27.685Z,100.00
2022-08-24T18:19:16.070Z,100.00
2022-08-24T18:22:04.560Z,100.00
2022-08-24T18:24:51.288Z,100.00
2022-08-24T18:27:38.143Z,100.00
2022-08-24T18:30:31.356Z,100.00
2022-08-24T18:33:21.077Z,100.00
2022-08-24T18:36:09.790Z,100.00
2022-08-24T18:38:56.585Z,100.00
2022-08-24T18:41:49.365Z,100.00
2022-08-24T18:44:38.657Z,100.00
2022-08-24T18:47:25.417Z,100.00
2022-08-24T18:50:12.210Z,100.00
2022-08-24T18:53:03.458Z,100.00
2022-08-24T18:55:50.041Z,100.00
2022-08-24T18:58:36.962Z,100.00
2022-08-24T19:01:25.472Z,100.00
2022-08-24T19:04:14.224Z,100.00
2022-08-24T19:07:00.901Z,100.00
2022-08-24T19:09:49.051Z,100.00
2022-08-24T19:12:39.423Z,100.00
2022-08-24T19:15:39.341Z,100.00
2022-08-24T19:18:28.664Z,100.00
2022-08-24T19:21:27.769Z,100.00
2022-08-24T19:24:26.520Z,100.00
2022-08-24T19:27:15.314Z,100.00
2022-08-24T19:30:04.860Z,100.00
2022-08-24T19:32:59.409Z,100.00
2022-08-24T19:35:46.988Z,100.00
2022-08-24T19:38:34.499Z,100.00
2022-08-24T19:41:22.112Z,100.00
2022-08-24T19:44:28.109Z,100.00
2022-08-24T19:47:16.727Z,100.00
2022-08-24T19:50:08.652Z,100.00
2022-08-24T19:52:58.829Z,100.00
2022-08-24T19:55:50.098Z,100.00
2022-08-24T19:58:44.740Z,100.00
2022-08-24T20:01:37.738Z,100.00
2022-08-24T20:04:25.109Z,100.00
2022-08-24T20:07:17.664Z,100.00
2022-08-24T20:10:04.683Z,100.00
2022-08-24T20:13:00.334Z,100.00
2022-08-24T20:15:47.044Z,100.00
2022-08-24T20:18:36.440Z,100.00
2022-08-24T20:21:26.132Z,100.00
2022-08-24T20:24:16.610Z,100.00
2022-08-24T20:27:03.520Z,100.00
2022-08-24T20:29:50.212Z,100.00
2022-08-24T20:32:37.195Z,100.00
2022-08-24T20:35:29.590Z,100.00
2022-08-24T20:38:19.396Z,100.00
2022-08-24T20:41:06.370Z,100.00
2022-08-24T20:43:52.967Z,100.00
2022-08-24T20:46:41.018Z,100.00
2022-08-24T20:49:34.229Z,100.00
2022-08-24T20:52:22.705Z,100.00
2022-08-24T20:55:10.758Z,100.00
2022-08-24T20:58:00.800Z,100.00
2022-08-24T21:00:47.753Z,100.00
2022-08-24T21:03:35.179Z,100.00
2022-08-24T21:06:21.617Z,100.00
2022-08-24T21:09:12.725Z,100.00
2022-08-24T21:12:01.057Z,100.00
2022-08-24T21:14:47.748Z,100.00
2022-08-24T21:17:37.673Z,100.00
2022-08-24T21:20:25.679Z,100.00
2022-08-24T21:23:12.941Z,100.00
2022-08-24T21:26:03.160Z,100.00
2022-08-24T21:28:49.997Z,100.00
2022-08-24T21:31:37.363Z,100.00
2022-08-24T21:34:41.417Z,100.00
2022-08-24T21:37:28.213Z,100.00
2022-08-24T21:40:15.062Z,100.00
2022-08-24T21:43:03.665Z,100.00
2022-08-24T21:46:01.552Z,100.00
2022-08-24T21:48:48.386Z,100.00
2022-08-24T21:51:35.457Z,100.00
2022-08-24T21:54:22.331Z,100.00
2022-08-24T21:57:09.346Z,100.00
2022-08-24T21:59:57.218Z,100.00
2022-08-24T22:02:44.218Z,100.00
2022-08-24T22:05:31.463Z,100.00
2022-08-24T22:08:18.147Z,100.00
2022-08-24T22:11:04.957Z,100.00
2022-08-24T22:13:52.114Z,100.00
2022-08-24T22:16:40.231Z,100.00
2022-08-24T22:19:26.905Z,100.00
2022-08-24T22:22:13.795Z,100.00
2022-08-24T22:25:00.875Z,100.00
2022-08-24T22:27:48.214Z,100.00
2022-08-24T22:30:35.100Z,100.00
2022-08-24T22:33:23.887Z,100.00
2022-08-24T22:36:11.812Z,100.00
2022-08-24T22:38:59.904Z,100.00
2022-08-24T22:41:46.390Z,100.00
2022-08-24T22:44:34.233Z,100.00
2022-08-24T22:47:20.772Z,100.00
2022-08-24T22:50:10.971Z,100.00
2022-08-24T22:52:57.690Z,100.00
2022-08-24T22:55:44.917Z,100.00
2022-08-24T22:58:31.698Z,100.00
2022-08-24T23:01:23.240Z,100.00
2022-08-24T23:04:13.346Z,100.00
2022-08-24T23:07:01.512Z,100.00
2022-08-24T23:09:48.555Z,100.00
2022-08-24T23:12:35.192Z,100.00
2022-08-24T23:15:21.646Z,100.00
2022-08-24T23:18:28.586Z,100.00
2022-08-24T23:21:14.952Z,100.00
2022-08-24T23:24:03.319Z,100.00
2022-08-24T23:26:50.013Z,100.00
2022-08-24T23:29:37.430Z,100.00
2022-08-24T23:32:24.467Z,100.00
2022-08-24T23:35:11.001Z,100.00
2022-08-24T23:37:57.720Z,100.00
2022-08-24T23:40:45.495Z,100.00
2022-08-24T23:43:32.173Z,100.00
2022-08-24T23:46:18.965Z,100.00
2022-08-24T23:49:08.712Z,100.00
2022-08-24T23:51:55.328Z,100.00
2022-08-24T23:54:42.071Z,100.00
2022-08-24T23:57:30.351Z,100.00
